Terminal Aerodrome Forecast
Issued by NWS Springfield, MO

Home | Current Version | Previous Version | Text Only | Print | Product List | Glossary On
Versions: 1 2 3 4 5 6 7 8 9 10 11 12 13 14 15 16 17 18
000
FTUS43 KSGF 251100
TAFSGF
TAF
KSGF 251135Z 2512/2612 18013KT P6SM SCT009 WS020/21040KT
     FM251400 24018G28KT P6SM SCT050
     FM251900 27020G28KT P6SM FEW050 SCT250
     FM260000 33010KT P6SM SCT007 BKN050
     FM260600 36009KT P6SM OVC005=

USA.gov is the U.S. government's official web portal to all federal, state and local government web resources and services.